sensor_id;sensor_type;location;lat;lon;timestamp;P1;durP1;ratioP1;P2;durP2;ratioP2
74371;SDS011;62885;51.374;6.170;2024-02-26T00:00:27;3.35;;;1.38;;
74371;SDS011;62885;51.374;6.170;2024-02-26T00:02:53;1.92;;;1.35;;
74371;SDS011;62885;51.374;6.170;2024-02-26T00:05:19;3.70;;;1.38;;
74371;SDS011;62885;51.374;6.170;2024-02-26T00:07:44;2.78;;;1.50;;
74371;SDS011;62885;51.374;6.170;2024-02-26T00:10:10;3.92;;;1.33;;
74371;SDS011;62885;51.374;6.170;2024-02-26T00:12:35;2.70;;;1.25;;
74371;SDS011;62885;51.374;6.170;2024-02-26T00:15:00;5.57;;;1.90;;
74371;SDS011;62885;51.374;6.170;2024-02-26T00:17:26;4.63;;;1.40;;
74371;SDS011;62885;51.374;6.170;2024-02-26T00:19:51;6.95;;;1.63;;
74371;SDS011;62885;51.374;6.170;2024-02-26T00:22:16;3.17;;;1.60;;
74371;SDS011;62885;51.374;6.170;2024-02-26T00:24:42;3.38;;;1.52;;
74371;SDS011;62885;51.374;6.170;2024-02-26T00:27:07;3.75;;;1.58;;
74371;SDS011;62885;51.374;6.170;2024-02-26T00:29:33;3.83;;;1.25;;
74371;SDS011;62885;51.374;6.170;2024-02-26T00:31:58;3.55;;;2.10;;
74371;SDS011;62885;51.374;6.170;2024-02-26T00:34:23;3.28;;;1.60;;
74371;SDS011;62885;51.374;6.170;2024-02-26T00:36:49;5.15;;;1.70;;
74371;SDS011;62885;51.374;6.170;2024-02-26T00:39:14;5.70;;;2.15;;
74371;SDS011;62885;51.374;6.170;2024-02-26T00:41:40;4.97;;;1.65;;
74371;SDS011;62885;51.374;6.170;2024-02-26T00:44:06;2.40;;;1.17;;
74371;SDS011;62885;51.374;6.170;2024-02-26T00:46:32;2.55;;;1.17;;
74371;SDS011;62885;51.374;6.170;2024-02-26T00:48:57;4.00;;;1.65;;
74371;SDS011;62885;51.374;6.170;2024-02-26T00:51:23;4.03;;;1.52;;
74371;SDS011;62885;51.374;6.170;2024-02-26T00:53:48;3.90;;;1.67;;
74371;SDS011;62885;51.374;6.170;2024-02-26T00:56:13;3.97;;;1.48;;
74371;SDS011;62885;51.374;6.170;2024-02-26T00:58:39;4.90;;;1.50;;
74371;SDS011;62885;51.374;6.170;2024-02-26T01:01:04;4.03;;;1.75;;
74371;SDS011;62885;51.374;6.170;2024-02-26T01:03:30;4.25;;;1.67;;
74371;SDS011;62885;51.374;6.170;2024-02-26T01:05:55;4.68;;;1.77;;
74371;SDS011;62885;51.374;6.170;2024-02-26T01:08:20;2.45;;;1.33;;
74371;SDS011;62885;51.374;6.170;2024-02-26T01:10:46;4.07;;;1.40;;
74371;SDS011;62885;51.374;6.170;2024-02-26T01:13:11;2.83;;;1.52;;
74371;SDS011;62885;51.374;6.170;2024-02-26T01:15:36;3.22;;;1.40;;
74371;SDS011;62885;51.374;6.170;2024-02-26T01:18:02;2.17;;;1.35;;
74371;SDS011;62885;51.374;6.170;2024-02-26T01:20:27;3.00;;;1.70;;
74371;SDS011;62885;51.374;6.170;2024-02-26T01:22:53;3.03;;;1.50;;
74371;SDS011;62885;51.374;6.170;2024-02-26T01:25:18;7.65;;;1.58;;
74371;SDS011;62885;51.374;6.170;2024-02-26T01:27:43;1.77;;;1.25;;
74371;SDS011;62885;51.374;6.170;2024-02-26T01:30:09;4.18;;;1.58;;
74371;SDS011;62885;51.374;6.170;2024-02-26T01:32:35;3.40;;;1.55;;
74371;SDS011;62885;51.374;6.170;2024-02-26T01:35:01;3.63;;;1.45;;
74371;SDS011;62885;51.374;6.170;2024-02-26T01:37:28;3.70;;;1.80;;
74371;SDS011;62885;51.374;6.170;2024-02-26T01:39:56;2.78;;;1.50;;
74371;SDS011;62885;51.374;6.170;2024-02-26T01:42:21;3.58;;;1.52;;
74371;SDS011;62885;51.374;6.170;2024-02-26T01:44:50;4.00;;;2.03;;
74371;SDS011;62885;51.374;6.170;2024-02-26T01:47:15;4.18;;;1.80;;
74371;SDS011;62885;51.374;6.170;2024-02-26T01:49:41;3.92;;;2.17;;
74371;SDS011;62885;51.374;6.170;2024-02-26T01:52:07;2.25;;;1.38;;
74371;SDS011;62885;51.374;6.170;2024-02-26T01:54:35;4.55;;;1.63;;
74371;SDS011;62885;51.374;6.170;2024-02-26T01:57:02;2.70;;;1.48;;
74371;SDS011;62885;51.374;6.170;2024-02-26T01:59:30;5.10;;;2.15;;
74371;SDS011;62885;51.374;6.170;2024-02-26T02:01:57;2.45;;;1.25;;
74371;SDS011;62885;51.374;6.170;2024-02-26T02:04:26;4.10;;;1.58;;
74371;SDS011;62885;51.374;6.170;2024-02-26T02:06:52;3.90;;;1.73;;
74371;SDS011;62885;51.374;6.170;2024-02-26T02:09:18;5.22;;;1.80;;
74371;SDS011;62885;51.374;6.170;2024-02-26T02:11:43;3.47;;;1.52;;
74371;SDS011;62885;51.374;6.170;2024-02-26T02:14:09;5.45;;;2.03;;
74371;SDS011;62885;51.374;6.170;2024-02-26T02:16:35;7.13;;;2.03;;
74371;SDS011;62885;51.374;6.170;2024-02-26T02:19:00;4.60;;;2.30;;
74371;SDS011;62885;51.374;6.170;2024-02-26T02:21:25;5.05;;;2.15;;
74371;SDS011;62885;51.374;6.170;2024-02-26T02:23:51;4.22;;;1.70;;
74371;SDS011;62885;51.374;6.170;2024-02-26T02:26:16;3.05;;;1.83;;
74371;SDS011;62885;51.374;6.170;2024-02-26T02:28:43;3.83;;;1.65;;
74371;SDS011;62885;51.374;6.170;2024-02-26T02:31:11;3.63;;;1.40;;
74371;SDS011;62885;51.374;6.170;2024-02-26T02:33:37;5.40;;;2.40;;
74371;SDS011;62885;51.374;6.170;2024-02-26T02:36:02;2.35;;;1.30;;
74371;SDS011;62885;51.374;6.170;2024-02-26T02:38:28;4.15;;;1.25;;
74371;SDS011;62885;51.374;6.170;2024-02-26T02:40:55;5.13;;;1.90;;
74371;SDS011;62885;51.374;6.170;2024-02-26T02:43:21;5.10;;;1.67;;
74371;SDS011;62885;51.374;6.170;2024-02-26T02:45:46;3.38;;;1.77;;
74371;SDS011;62885;51.374;6.170;2024-02-26T02:48:11;3.42;;;1.20;;
74371;SDS011;62885;51.374;6.170;2024-02-26T02:50:37;2.45;;;0.90;;
74371;SDS011;62885;51.374;6.170;2024-02-26T02:53:02;4.55;;;1.58;;
74371;SDS011;62885;51.374;6.170;2024-02-26T02:55:28;3.70;;;1.20;;
74371;SDS011;62885;51.374;6.170;2024-02-26T02:57:54;3.13;;;1.35;;
74371;SDS011;62885;51.374;6.170;2024-02-26T03:00:19;2.55;;;1.60;;
74371;SDS011;62885;51.374;6.170;2024-02-26T03:02:44;3.28;;;1.52;;
74371;SDS011;62885;51.374;6.170;2024-02-26T03:05:11;6.20;;;1.65;;
74371;SDS011;62885;51.374;6.170;2024-02-26T03:07:36;2.85;;;1.40;;
74371;SDS011;62885;51.374;6.170;2024-02-26T03:10:02;3.35;;;1.50;;
74371;SDS011;62885;51.374;6.170;2024-02-26T03:12:27;3.72;;;1.83;;
74371;SDS011;62885;51.374;6.170;2024-02-26T03:14:53;2.38;;;1.30;;
74371;SDS011;62885;51.374;6.170;2024-02-26T03:17:19;2.28;;;1.25;;
74371;SDS011;62885;51.374;6.170;2024-02-26T03:19:46;3.13;;;1.85;;
74371;SDS011;62885;51.374;6.170;2024-02-26T03:22:12;3.45;;;2.00;;
74371;SDS011;62885;51.374;6.170;2024-02-26T03:24:37;4.53;;;2.15;;
74371;SDS011;62885;51.374;6.170;2024-02-26T03:27:03;6.72;;;2.58;;
74371;SDS011;62885;51.374;6.170;2024-02-26T03:29:30;7.90;;;2.33;;
74371;SDS011;62885;51.374;6.170;2024-02-26T03:31:55;5.78;;;2.55;;
74371;SDS011;62885;51.374;6.170;2024-02-26T03:34:21;4.55;;;2.10;;
74371;SDS011;62885;51.374;6.170;2024-02-26T03:36:46;5.32;;;2.20;;
74371;SDS011;62885;51.374;6.170;2024-02-26T03:39:12;4.90;;;1.90;;
74371;SDS011;62885;51.374;6.170;2024-02-26T03:41:37;6.15;;;2.38;;
74371;SDS011;62885;51.374;6.170;2024-02-26T03:44:03;5.93;;;2.50;;
74371;SDS011;62885;51.374;6.170;2024-02-26T03:46:28;5.43;;;2.17;;
74371;SDS011;62885;51.374;6.170;2024-02-26T03:48:53;4.50;;;2.25;;
74371;SDS011;62885;51.374;6.170;2024-02-26T03:51:19;6.20;;;2.25;;
74371;SDS011;62885;51.374;6.170;2024-02-26T03:53:44;5.93;;;2.53;;
74371;SDS011;62885;51.374;6.170;2024-02-26T03:56:11;8.60;;;2.47;;
74371;SDS011;62885;51.374;6.170;2024-02-26T03:58:36;7.15;;;2.95;;
74371;SDS011;62885;51.374;6.170;2024-02-26T04:01:02;4.78;;;1.42;;
74371;SDS011;62885;51.374;6.170;2024-02-26T04:03:27;4.38;;;2.03;;
74371;SDS011;62885;51.374;6.170;2024-02-26T04:05:53;4.22;;;1.88;;
74371;SDS011;62885;51.374;6.170;2024-02-26T04:08:18;5.28;;;2.03;;
74371;SDS011;62885;51.374;6.170;2024-02-26T04:10:43;4.00;;;1.75;;
74371;SDS011;62885;51.374;6.170;2024-02-26T04:13:09;4.85;;;2.08;;
74371;SDS011;62885;51.374;6.170;2024-02-26T04:15:34;4.18;;;2.75;;
74371;SDS011;62885;51.374;6.170;2024-02-26T04:18:00;5.90;;;2.17;;
74371;SDS011;62885;51.374;6.170;2024-02-26T04:20:25;5.57;;;2.47;;
74371;SDS011;62885;51.374;6.170;2024-02-26T04:22:50;5.93;;;2.28;;
74371;SDS011;62885;51.374;6.170;2024-02-26T04:25:16;5.07;;;1.73;;
74371;SDS011;62885;51.374;6.170;2024-02-26T04:27:41;4.97;;;2.45;;
74371;SDS011;62885;51.374;6.170;2024-02-26T04:30:07;2.17;;;1.52;;
74371;SDS011;62885;51.374;6.170;2024-02-26T04:32:33;3.75;;;2.13;;
74371;SDS011;62885;51.374;6.170;2024-02-26T04:34:59;3.25;;;2.05;;
74371;SDS011;62885;51.374;6.170;2024-02-26T04:37:25;3.53;;;1.58;;
74371;SDS011;62885;51.374;6.170;2024-02-26T04:39:55;3.42;;;1.77;;
74371;SDS011;62885;51.374;6.170;2024-02-26T04:42:22;8.43;;;2.00;;
74371;SDS011;62885;51.374;6.170;2024-02-26T04:44:47;3.58;;;1.52;;
74371;SDS011;62885;51.374;6.170;2024-02-26T04:47:13;3.40;;;1.90;;
74371;SDS011;62885;51.374;6.170;2024-02-26T04:49:39;6.80;;;2.38;;
74371;SDS011;62885;51.374;6.170;2024-02-26T04:52:04;5.00;;;2.35;;
74371;SDS011;62885;51.374;6.170;2024-02-26T04:54:30;5.47;;;2.08;;
74371;SDS011;62885;51.374;6.170;2024-02-26T04:56:55;2.60;;;1.70;;
74371;SDS011;62885;51.374;6.170;2024-02-26T04:59:20;2.33;;;1.48;;
74371;SDS011;62885;51.374;6.170;2024-02-26T05:01:46;4.68;;;2.40;;
74371;SDS011;62885;51.374;6.170;2024-02-26T05:04:12;3.83;;;2.00;;
74371;SDS011;62885;51.374;6.170;2024-02-26T05:06:37;7.50;;;2.13;;
74371;SDS011;62885;51.374;6.170;2024-02-26T05:09:03;4.15;;;2.00;;
74371;SDS011;62885;51.374;6.170;2024-02-26T05:11:28;4.28;;;2.63;;
74371;SDS011;62885;51.374;6.170;2024-02-26T05:13:54;3.42;;;2.08;;
74371;SDS011;62885;51.374;6.170;2024-02-26T05:16:19;3.40;;;1.92;;
74371;SDS011;62885;51.374;6.170;2024-02-26T05:18:47;2.70;;;1.48;;
74371;SDS011;62885;51.374;6.170;2024-02-26T05:21:12;3.65;;;1.90;;
74371;SDS011;62885;51.374;6.170;2024-02-26T05:23:37;5.15;;;2.20;;
74371;SDS011;62885;51.374;6.170;2024-02-26T05:26:03;3.95;;;1.83;;
74371;SDS011;62885;51.374;6.170;2024-02-26T05:28:28;4.30;;;2.13;;
74371;SDS011;62885;51.374;6.170;2024-02-26T05:30:54;3.10;;;1.80;;
74371;SDS011;62885;51.374;6.170;2024-02-26T05:33:19;3.33;;;1.88;;
74371;SDS011;62885;51.374;6.170;2024-02-26T05:35:44;2.63;;;1.60;;
74371;SDS011;62885;51.374;6.170;2024-02-26T05:38:10;3.92;;;2.28;;
74371;SDS011;62885;51.374;6.170;2024-02-26T05:40:35;2.78;;;1.85;;
74371;SDS011;62885;51.374;6.170;2024-02-26T05:43:01;3.40;;;2.20;;
74371;SDS011;62885;51.374;6.170;2024-02-26T05:45:27;3.13;;;2.08;;
74371;SDS011;62885;51.374;6.170;2024-02-26T05:47:53;2.67;;;1.45;;
74371;SDS011;62885;51.374;6.170;2024-02-26T05:50:18;4.72;;;2.28;;
74371;SDS011;62885;51.374;6.170;2024-02-26T05:52:44;4.85;;;2.40;;
74371;SDS011;62885;51.374;6.170;2024-02-26T05:55:09;3.22;;;1.38;;
74371;SDS011;62885;51.374;6.170;2024-02-26T05:57:36;9.10;;;2.15;;
74371;SDS011;62885;51.374;6.170;2024-02-26T06:00:01;4.28;;;2.13;;
74371;SDS011;62885;51.374;6.170;2024-02-26T06:02:32;3.53;;;1.70;;
74371;SDS011;62885;51.374;6.170;2024-02-26T06:04:57;4.90;;;1.85;;
74371;SDS011;62885;51.374;6.170;2024-02-26T06:07:23;3.63;;;2.03;;
74371;SDS011;62885;51.374;6.170;2024-02-26T06:09:49;3.55;;;1.80;;
74371;SDS011;62885;51.374;6.170;2024-02-26T06:12:14;3.92;;;1.98;;
74371;SDS011;62885;51.374;6.170;2024-02-26T06:14:39;5.00;;;2.22;;
74371;SDS011;62885;51.374;6.170;2024-02-26T06:17:07;3.35;;;1.90;;
74371;SDS011;62885;51.374;6.170;2024-02-26T06:19:32;3.78;;;1.77;;
74371;SDS011;62885;51.374;6.170;2024-02-26T06:21:57;4.47;;;2.38;;
74371;SDS011;62885;51.374;6.170;2024-02-26T06:24:23;6.15;;;2.13;;
74371;SDS011;62885;51.374;6.170;2024-02-26T06:26:48;3.55;;;1.80;;
74371;SDS011;62885;51.374;6.170;2024-02-26T06:29:14;4.38;;;1.80;;
74371;SDS011;62885;51.374;6.170;2024-02-26T06:31:40;3.60;;;1.80;;
74371;SDS011;62885;51.374;6.170;2024-02-26T06:34:05;3.00;;;1.70;;
74371;SDS011;62885;51.374;6.170;2024-02-26T06:36:31;3.58;;;1.90;;
74371;SDS011;62885;51.374;6.170;2024-02-26T06:38:57;2.28;;;1.20;;
74371;SDS011;62885;51.374;6.170;2024-02-26T06:41:22;4.15;;;2.10;;
74371;SDS011;62885;51.374;6.170;2024-02-26T06:43:52;3.65;;;1.50;;
74371;SDS011;62885;51.374;6.170;2024-02-26T06:46:18;5.65;;;2.25;;
74371;SDS011;62885;51.374;6.170;2024-02-26T06:48:44;4.70;;;2.20;;
74371;SDS011;62885;51.374;6.170;2024-02-26T06:51:09;5.32;;;2.30;;
74371;SDS011;62885;51.374;6.170;2024-02-26T06:53:34;6.63;;;1.85;;
74371;SDS011;62885;51.374;6.170;2024-02-26T06:56:00;2.92;;;1.35;;
74371;SDS011;62885;51.374;6.170;2024-02-26T06:58:25;4.70;;;1.85;;
74371;SDS011;62885;51.374;6.170;2024-02-26T07:00:50;2.55;;;1.33;;
74371;SDS011;62885;51.374;6.170;2024-02-26T07:03:16;3.25;;;2.08;;
74371;SDS011;62885;51.374;6.170;2024-02-26T07:05:41;2.83;;;1.85;;
74371;SDS011;62885;51.374;6.170;2024-02-26T07:08:07;4.60;;;2.17;;
74371;SDS011;62885;51.374;6.170;2024-02-26T07:10:32;2.42;;;1.48;;
74371;SDS011;62885;51.374;6.170;2024-02-26T07:12:57;5.28;;;2.13;;
74371;SDS011;62885;51.374;6.170;2024-02-26T07:15:23;2.63;;;1.83;;
74371;SDS011;62885;51.374;6.170;2024-02-26T07:17:49;4.30;;;2.78;;
74371;SDS011;62885;51.374;6.170;2024-02-26T07:20:14;3.08;;;1.67;;
74371;SDS011;62885;51.374;6.170;2024-02-26T07:22:40;4.45;;;2.47;;
74371;SDS011;62885;51.374;6.170;2024-02-26T07:25:07;5.50;;;2.10;;
74371;SDS011;62885;51.374;6.170;2024-02-26T07:27:33;2.95;;;1.83;;
74371;SDS011;62885;51.374;6.170;2024-02-26T07:29:59;3.25;;;2.15;;
74371;SDS011;62885;51.374;6.170;2024-02-26T07:32:24;3.25;;;1.88;;
74371;SDS011;62885;51.374;6.170;2024-02-26T07:34:50;4.38;;;2.20;;
74371;SDS011;62885;51.374;6.170;2024-02-26T07:37:15;3.92;;;1.90;;
74371;SDS011;62885;51.374;6.170;2024-02-26T07:39:40;4.60;;;2.17;;
74371;SDS011;62885;51.374;6.170;2024-02-26T07:42:06;4.70;;;2.38;;
74371;SDS011;62885;51.374;6.170;2024-02-26T07:44:32;4.60;;;2.30;;
74371;SDS011;62885;51.374;6.170;2024-02-26T07:46:58;4.47;;;2.33;;
74371;SDS011;62885;51.374;6.170;2024-02-26T07:49:23;4.82;;;2.58;;
74371;SDS011;62885;51.374;6.170;2024-02-26T07:51:48;4.53;;;2.25;;
74371;SDS011;62885;51.374;6.170;2024-02-26T07:54:14;4.65;;;2.55;;
74371;SDS011;62885;51.374;6.170;2024-02-26T07:56:41;3.88;;;2.63;;
74371;SDS011;62885;51.374;6.170;2024-02-26T07:59:06;4.00;;;2.25;;
74371;SDS011;62885;51.374;6.170;2024-02-26T08:01:32;4.63;;;2.25;;
74371;SDS011;62885;51.374;6.170;2024-02-26T08:03:58;2.53;;;1.80;;
74371;SDS011;62885;51.374;6.170;2024-02-26T08:06:24;6.30;;;2.53;;
74371;SDS011;62885;51.374;6.170;2024-02-26T08:08:50;4.30;;;2.00;;
74371;SDS011;62885;51.374;6.170;2024-02-26T08:11:15;3.95;;;2.08;;
74371;SDS011;62885;51.374;6.170;2024-02-26T08:13:41;4.38;;;1.90;;
74371;SDS011;62885;51.374;6.170;2024-02-26T08:16:06;4.47;;;2.40;;
74371;SDS011;62885;51.374;6.170;2024-02-26T08:18:32;6.10;;;2.38;;
74371;SDS011;62885;51.374;6.170;2024-02-26T08:20:57;3.58;;;2.03;;
74371;SDS011;62885;51.374;6.170;2024-02-26T08:23:22;2.88;;;1.73;;
74371;SDS011;62885;51.374;6.170;2024-02-26T08:25:48;3.65;;;1.95;;
74371;SDS011;62885;51.374;6.170;2024-02-26T08:28:13;2.55;;;1.42;;
74371;SDS011;62885;51.374;6.170;2024-02-26T08:30:39;2.95;;;1.60;;
74371;SDS011;62885;51.374;6.170;2024-02-26T08:33:04;4.00;;;2.42;;
74371;SDS011;62885;51.374;6.170;2024-02-26T08:35:29;2.55;;;1.17;;
74371;SDS011;62885;51.374;6.170;2024-02-26T08:37:55;3.00;;;1.63;;
74371;SDS011;62885;51.374;6.170;2024-02-26T08:40:20;4.32;;;2.03;;
74371;SDS011;62885;51.374;6.170;2024-02-26T08:42:46;2.22;;;1.20;;
74371;SDS011;62885;51.374;6.170;2024-02-26T08:45:11;5.72;;;1.83;;
74371;SDS011;62885;51.374;6.170;2024-02-26T08:47:37;4.57;;;2.00;;
74371;SDS011;62885;51.374;6.170;2024-02-26T08:50:04;3.95;;;2.55;;
74371;SDS011;62885;51.374;6.170;2024-02-26T08:52:30;4.75;;;2.35;;
74371;SDS011;62885;51.374;6.170;2024-02-26T08:54:55;4.55;;;1.85;;
74371;SDS011;62885;51.374;6.170;2024-02-26T08:57:21;5.05;;;1.95;;
74371;SDS011;62885;51.374;6.170;2024-02-26T08:59:46;2.65;;;1.50;;
74371;SDS011;62885;51.374;6.170;2024-02-26T09:02:11;4.20;;;2.00;;
74371;SDS011;62885;51.374;6.170;2024-02-26T09:04:37;4.35;;;2.40;;
74371;SDS011;62885;51.374;6.170;2024-02-26T09:07:02;6.47;;;1.98;;
74371;SDS011;62885;51.374;6.170;2024-02-26T09:09:28;2.17;;;1.10;;
74371;SDS011;62885;51.374;6.170;2024-02-26T09:11:53;3.30;;;1.75;;
74371;SDS011;62885;51.374;6.170;2024-02-26T09:14:20;4.10;;;1.45;;
74371;SDS011;62885;51.374;6.170;2024-02-26T09:16:45;2.35;;;1.42;;
74371;SDS011;62885;51.374;6.170;2024-02-26T09:19:11;4.05;;;2.42;;
74371;SDS011;62885;51.374;6.170;2024-02-26T09:21:41;3.78;;;1.85;;
74371;SDS011;62885;51.374;6.170;2024-02-26T09:24:07;5.25;;;2.60;;
74371;SDS011;62885;51.374;6.170;2024-02-26T09:26:33;6.50;;;2.60;;
74371;SDS011;62885;51.374;6.170;2024-02-26T09:28:58;2.97;;;1.85;;
74371;SDS011;62885;51.374;6.170;2024-02-26T09:31:23;3.47;;;1.75;;
74371;SDS011;62885;51.374;6.170;2024-02-26T09:33:49;2.67;;;1.50;;
74371;SDS011;62885;51.374;6.170;2024-02-26T09:36:15;5.05;;;1.77;;
74371;SDS011;62885;51.374;6.170;2024-02-26T09:38:40;3.88;;;2.03;;
74371;SDS011;62885;51.374;6.170;2024-02-26T09:41:05;4.78;;;2.28;;
74371;SDS011;62885;51.374;6.170;2024-02-26T09:43:34;3.63;;;2.03;;
74371;SDS011;62885;51.374;6.170;2024-02-26T09:46:04;2.80;;;1.50;;
74371;SDS011;62885;51.374;6.170;2024-02-26T09:48:30;2.65;;;1.88;;
74371;SDS011;62885;51.374;6.170;2024-02-26T09:50:57;2.65;;;1.58;;
74371;SDS011;62885;51.374;6.170;2024-02-26T09:53:22;3.72;;;2.20;;
74371;SDS011;62885;51.374;6.170;2024-02-26T09:55:48;3.78;;;2.00;;
74371;SDS011;62885;51.374;6.170;2024-02-26T09:58:13;4.45;;;2.35;;
74371;SDS011;62885;51.374;6.170;2024-02-26T10:00:43;4.43;;;1.95;;
74371;SDS011;62885;51.374;6.170;2024-02-26T10:03:16;3.80;;;1.90;;
74371;SDS011;62885;51.374;6.170;2024-02-26T10:05:43;2.90;;;1.77;;
74371;SDS011;62885;51.374;6.170;2024-02-26T10:08:10;2.35;;;1.40;;
74371;SDS011;62885;51.374;6.170;2024-02-26T10:10:36;3.30;;;1.90;;
74371;SDS011;62885;51.374;6.170;2024-02-26T10:13:03;3.72;;;2.00;;
74371;SDS011;62885;51.374;6.170;2024-02-26T10:15:35;3.92;;;1.88;;
74371;SDS011;62885;51.374;6.170;2024-02-26T10:18:03;4.70;;;2.20;;
74371;SDS011;62885;51.374;6.170;2024-02-26T10:20:30;3.53;;;2.00;;
74371;SDS011;62885;51.374;6.170;2024-02-26T10:22:56;4.00;;;1.90;;
74371;SDS011;62885;51.374;6.170;2024-02-26T10:25:22;5.07;;;2.20;;
74371;SDS011;62885;51.374;6.170;2024-02-26T10:27:47;2.83;;;1.77;;
74371;SDS011;62885;51.374;6.170;2024-02-26T10:30:17;6.55;;;4.43;;
74371;SDS011;62885;51.374;6.170;2024-02-26T10:32:44;3.85;;;2.20;;
74371;SDS011;62885;51.374;6.170;2024-02-26T10:35:11;3.42;;;1.75;;
74371;SDS011;62885;51.374;6.170;2024-02-26T10:37:36;3.45;;;1.52;;
74371;SDS011;62885;51.374;6.170;2024-02-26T10:40:02;3.30;;;1.77;;
74371;SDS011;62885;51.374;6.170;2024-02-26T10:42:28;4.18;;;1.92;;
74371;SDS011;62885;51.374;6.170;2024-02-26T10:44:53;2.45;;;1.60;;
74371;SDS011;62885;51.374;6.170;2024-02-26T10:47:19;3.33;;;1.65;;
74371;SDS011;62885;51.374;6.170;2024-02-26T10:49:46;4.88;;;2.28;;
74371;SDS011;62885;51.374;6.170;2024-02-26T10:52:15;2.80;;;1.77;;
74371;SDS011;62885;51.374;6.170;2024-02-26T10:54:43;4.78;;;2.10;;
74371;SDS011;62885;51.374;6.170;2024-02-26T10:57:12;4.22;;;1.58;;
74371;SDS011;62885;51.374;6.170;2024-02-26T10:59:39;4.68;;;2.20;;
74371;SDS011;62885;51.374;6.170;2024-02-26T11:02:07;4.15;;;1.98;;
74371;SDS011;62885;51.374;6.170;2024-02-26T11:04:34;4.88;;;2.58;;
74371;SDS011;62885;51.374;6.170;2024-02-26T11:07:01;3.85;;;2.03;;
74371;SDS011;62885;51.374;6.170;2024-02-26T11:09:27;7.80;;;2.88;;
74371;SDS011;62885;51.374;6.170;2024-02-26T11:11:53;4.75;;;2.25;;
74371;SDS011;62885;51.374;6.170;2024-02-26T11:14:20;4.85;;;2.20;;
74371;SDS011;62885;51.374;6.170;2024-02-26T11:16:47;3.15;;;1.80;;
74371;SDS011;62885;51.374;6.170;2024-02-26T11:19:12;5.68;;;2.03;;
74371;SDS011;62885;51.374;6.170;2024-02-26T11:21:39;3.22;;;1.73;;
74371;SDS011;62885;51.374;6.170;2024-02-26T11:24:07;3.03;;;1.42;;
74371;SDS011;62885;51.374;6.170;2024-02-26T11:26:39;4.47;;;2.30;;
74371;SDS011;62885;51.374;6.170;2024-02-26T11:31:37;3.05;;;1.40;;
74371;SDS011;62885;51.374;6.170;2024-02-26T11:34:03;8.20;;;2.33;;
74371;SDS011;62885;51.374;6.170;2024-02-26T11:36:29;5.07;;;3.58;;
74371;SDS011;62885;51.374;6.170;2024-02-26T11:38:55;4.60;;;2.67;;
74371;SDS011;62885;51.374;6.170;2024-02-26T11:41:20;3.00;;;1.77;;
74371;SDS011;62885;51.374;6.170;2024-02-26T11:43:50;5.03;;;2.90;;
74371;SDS011;62885;51.374;6.170;2024-02-26T11:46:30;4.10;;;2.03;;
74371;SDS011;62885;51.374;6.170;2024-02-26T11:48:58;6.30;;;3.55;;
74371;SDS011;62885;51.374;6.170;2024-02-26T11:51:32;7.45;;;3.75;;
74371;SDS011;62885;51.374;6.170;2024-02-26T11:53:58;6.78;;;3.90;;
74371;SDS011;62885;51.374;6.170;2024-02-26T11:56:24;6.60;;;3.30;;
74371;SDS011;62885;51.374;6.170;2024-02-26T11:58:58;8.30;;;3.92;;
74371;SDS011;62885;51.374;6.170;2024-02-26T12:04:05;5.55;;;3.20;;
74371;SDS011;62885;51.374;6.170;2024-02-26T12:06:42;9.57;;;4.13;;
74371;SDS011;62885;51.374;6.170;2024-02-26T12:09:09;8.57;;;4.40;;
74371;SDS011;62885;51.374;6.170;2024-02-26T12:11:38;8.43;;;4.28;;
74371;SDS011;62885;51.374;6.170;2024-02-26T12:14:05;8.20;;;4.25;;
74371;SDS011;62885;51.374;6.170;2024-02-26T12:16:39;8.60;;;4.75;;
74371;SDS011;62885;51.374;6.170;2024-02-26T12:19:05;8.23;;;4.20;;
74371;SDS011;62885;51.374;6.170;2024-02-26T12:21:33;7.55;;;3.08;;
74371;SDS011;62885;51.374;6.170;2024-02-26T12:24:07;8.15;;;4.57;;
74371;SDS011;62885;51.374;6.170;2024-02-26T12:26:38;9.13;;;4.43;;
74371;SDS011;62885;51.374;6.170;2024-02-26T12:29:04;8.10;;;4.72;;
74371;SDS011;62885;51.374;6.170;2024-02-26T12:31:30;7.32;;;4.10;;
74371;SDS011;62885;51.374;6.170;2024-02-26T12:33:56;9.45;;;3.97;;
74371;SDS011;62885;51.374;6.170;2024-02-26T12:36:22;7.28;;;3.63;;
74371;SDS011;62885;51.374;6.170;2024-02-26T12:38:48;7.53;;;4.03;;
74371;SDS011;62885;51.374;6.170;2024-02-26T12:41:15;8.65;;;5.05;;
74371;SDS011;62885;51.374;6.170;2024-02-26T12:43:41;7.93;;;4.40;;
74371;SDS011;62885;51.374;6.170;2024-02-26T12:46:06;8.05;;;3.72;;
74371;SDS011;62885;51.374;6.170;2024-02-26T12:48:32;8.23;;;4.78;;
74371;SDS011;62885;51.374;6.170;2024-02-26T12:50:57;6.38;;;3.67;;
74371;SDS011;62885;51.374;6.170;2024-02-26T12:53:23;8.13;;;4.38;;
74371;SDS011;62885;51.374;6.170;2024-02-26T12:55:48;7.72;;;4.28;;
74371;SDS011;62885;51.374;6.170;2024-02-26T12:58:14;8.65;;;5.32;;
74371;SDS011;62885;51.374;6.170;2024-02-26T13:00:40;6.50;;;3.67;;
74371;SDS011;62885;51.374;6.170;2024-02-26T13:03:06;8.25;;;4.05;;
74371;SDS011;62885;51.374;6.170;2024-02-26T13:05:31;7.47;;;4.07;;
74371;SDS011;62885;51.374;6.170;2024-02-26T13:07:58;8.57;;;4.07;;
74371;SDS011;62885;51.374;6.170;2024-02-26T13:10:24;8.65;;;4.43;;
74371;SDS011;62885;51.374;6.170;2024-02-26T13:12:50;8.30;;;4.10;;
74371;SDS011;62885;51.374;6.170;2024-02-26T13:15:16;10.77;;;5.00;;
74371;SDS011;62885;51.374;6.170;2024-02-26T13:17:43;6.80;;;3.90;;
74371;SDS011;62885;51.374;6.170;2024-02-26T13:20:09;6.93;;;3.20;;
74371;SDS011;62885;51.374;6.170;2024-02-26T13:22:37;6.65;;;3.92;;
74371;SDS011;62885;51.374;6.170;2024-02-26T13:25:03;10.07;;;4.30;;
74371;SDS011;62885;51.374;6.170;2024-02-26T13:27:30;9.63;;;3.67;;
74371;SDS011;62885;51.374;6.170;2024-02-26T13:30:05;8.45;;;4.35;;
74371;SDS011;62885;51.374;6.170;2024-02-26T13:32:36;7.88;;;3.63;;
74371;SDS011;62885;51.374;6.170;2024-02-26T13:35:04;9.25;;;3.60;;
74371;SDS011;62885;51.374;6.170;2024-02-26T13:37:36;7.30;;;3.78;;
74371;SDS011;62885;51.374;6.170;2024-02-26T13:40:06;6.45;;;3.33;;
74371;SDS011;62885;51.374;6.170;2024-02-26T13:42:36;9.65;;;4.22;;
74371;SDS011;62885;51.374;6.170;2024-02-26T13:45:02;8.07;;;4.30;;
74371;SDS011;62885;51.374;6.170;2024-02-26T13:47:32;7.22;;;3.85;;
74371;SDS011;62885;51.374;6.170;2024-02-26T13:50:00;6.80;;;3.42;;
74371;SDS011;62885;51.374;6.170;2024-02-26T13:52:26;7.32;;;3.75;;
74371;SDS011;62885;51.374;6.170;2024-02-26T13:54:52;7.00;;;3.10;;
74371;SDS011;62885;51.374;6.170;2024-02-26T13:57:21;4.63;;;2.17;;
74371;SDS011;62885;51.374;6.170;2024-02-26T13:59:46;8.05;;;3.25;;
74371;SDS011;62885;51.374;6.170;2024-02-26T14:02:12;9.07;;;3.53;;
74371;SDS011;62885;51.374;6.170;2024-02-26T14:04:38;7.20;;;3.75;;
74371;SDS011;62885;51.374;6.170;2024-02-26T14:07:04;7.13;;;4.07;;
74371;SDS011;62885;51.374;6.170;2024-02-26T14:09:29;6.65;;;3.80;;
74371;SDS011;62885;51.374;6.170;2024-02-26T14:11:55;7.80;;;4.25;;
74371;SDS011;62885;51.374;6.170;2024-02-26T14:14:20;6.55;;;3.65;;
74371;SDS011;62885;51.374;6.170;2024-02-26T14:16:46;6.97;;;2.80;;
74371;SDS011;62885;51.374;6.170;2024-02-26T14:19:11;7.30;;;3.75;;
74371;SDS011;62885;51.374;6.170;2024-02-26T14:21:38;5.60;;;3.35;;
74371;SDS011;62885;51.374;6.170;2024-02-26T14:24:04;6.60;;;3.67;;
74371;SDS011;62885;51.374;6.170;2024-02-26T14:26:30;7.03;;;3.65;;
74371;SDS011;62885;51.374;6.170;2024-02-26T14:28:55;9.23;;;4.38;;
74371;SDS011;62885;51.374;6.170;2024-02-26T14:31:21;8.02;;;3.55;;
74371;SDS011;62885;51.374;6.170;2024-02-26T14:33:46;4.90;;;2.95;;
74371;SDS011;62885;51.374;6.170;2024-02-26T14:36:13;7.07;;;3.75;;
74371;SDS011;62885;51.374;6.170;2024-02-26T14:38:39;10.45;;;4.20;;
74371;SDS011;62885;51.374;6.170;2024-02-26T14:41:04;7.55;;;3.95;;
74371;SDS011;62885;51.374;6.170;2024-02-26T14:43:29;8.98;;;4.63;;
74371;SDS011;62885;51.374;6.170;2024-02-26T14:45:57;8.23;;;4.47;;